createdAt,value
2018-10-17T00:01:46.307Z,58.08
2018-10-17T00:04:17.416Z,58.95
2018-10-17T00:06:46.464Z,59.10
2018-10-17T00:09:15.487Z,58.70
2018-10-17T00:11:44.529Z,59.96
2018-10-17T00:14:13.824Z,58.68
2018-10-17T00:16:42.884Z,59.64
2018-10-17T00:19:11.962Z,60.66
2018-10-17T00:21:41.008Z,60.06
2018-10-17T00:24:10.096Z,59.50
2018-10-17T00:26:39.138Z,60.91
2018-10-17T00:29:08.351Z,59.78
2018-10-17T00:31:37.278Z,60.36
2018-10-17T00:34:06.348Z,59.72
2018-10-17T00:36:36.422Z,59.74
2018-10-17T00:39:07.656Z,59.51
2018-10-17T00:41:36.872Z,59.31
2018-10-17T00:44:06.001Z,59.15
2018-10-17T00:46:35.073Z,59.87
2018-10-17T00:49:04.352Z,59.93
2018-10-17T00:51:33.402Z,60.17
2018-10-17T00:54:02.470Z,60.05
2018-10-17T00:56:31.668Z,59.07
2018-10-17T00:59:09.357Z,60.37
2018-10-17T01:01:38.859Z,59.80
2018-10-17T01:04:08.243Z,61.56
2018-10-17T01:06:39.413Z,59.99
2018-10-17T01:09:13.405Z,59.98
2018-10-17T01:11:42.653Z,61.49
2018-10-17T01:14:11.738Z,60.68
2018-10-17T01:16:41.720Z,61.31
2018-10-17T01:19:10.867Z,59.48
2018-10-17T01:21:39.820Z,60.20
2018-10-17T01:24:08.895Z,60.48
2018-10-17T01:26:37.946Z,60.91
2018-10-17T01:29:07.053Z,61.44
2018-10-17T01:31:36.068Z,60.85
2018-10-17T01:34:05.120Z,61.26
2018-10-17T01:36:34.202Z,60.74
2018-10-17T01:39:03.671Z,61.70
2018-10-17T01:41:32.736Z,62.50
2018-10-17T01:44:01.774Z,61.11
2018-10-17T01:46:30.857Z,61.63
2018-10-17T01:48:59.953Z,60.96
2018-10-17T01:51:28.964Z,62.10
2018-10-17T01:53:58.031Z,61.55
2018-10-17T01:56:27.076Z,61.38
2018-10-17T01:58:56.143Z,61.74
2018-10-17T02:01:25.178Z,62.98
2018-10-17T02:03:54.235Z,62.39
2018-10-17T02:06:23.348Z,61.43
2018-10-17T02:08:52.411Z,62.32
2018-10-17T02:23:15.463Z,62.72
2018-10-17T02:25:44.482Z,62.03
2018-10-17T02:28:13.545Z,62.21
2018-10-17T02:30:42.645Z,62.90
2018-10-17T02:33:11.771Z,62.81
2018-10-17T02:35:40.814Z,61.98
2018-10-17T02:38:09.878Z,63.26
2018-10-17T02:40:38.943Z,63.07
2018-10-17T02:43:08.134Z,62.38
2018-10-17T02:45:37.131Z,62.78
2018-10-17T02:48:06.214Z,62.44
2018-10-17T02:50:35.280Z,61.73
2018-10-17T02:53:04.392Z,62.66
2018-10-17T02:55:33.399Z,61.58
2018-10-17T02:58:02.470Z,62.67
2018-10-17T03:00:31.490Z,62.98
2018-10-17T03:03:00.566Z,61.24
2018-10-17T03:05:29.605Z,63.26
2018-10-17T03:07:58.703Z,63.24
2018-10-17T03:10:27.748Z,61.82
2018-10-17T03:12:56.872Z,64.09
2018-10-17T03:15:26.794Z,64.13
2018-10-17T03:17:55.873Z,63.13
2018-10-17T03:20:24.947Z,63.73
2018-10-17T03:22:54.073Z,63.67
2018-10-17T03:25:23.067Z,64.46
2018-10-17T03:27:52.235Z,64.51
2018-10-17T03:30:21.192Z,63.64
2018-10-17T03:32:50.258Z,62.47
2018-10-17T03:35:19.400Z,64.50
2018-10-17T03:37:48.487Z,65.01
2018-10-17T03:40:17.819Z,64.37
2018-10-17T03:42:46.910Z,63.95
2018-10-17T03:45:16.017Z,64.83
2018-10-17T03:47:45.421Z,64.56
2018-10-17T03:50:14.551Z,64.34
2018-10-17T03:52:43.649Z,64.58
2018-10-17T03:55:12.844Z,64.20
2018-10-17T03:57:41.904Z,64.75
2018-10-17T04:00:11.095Z,64.29
2018-10-17T04:02:40.184Z,65.12
2018-10-17T04:05:09.398Z,65.53
2018-10-17T04:07:38.740Z,66.43
2018-10-17T04:10:07.812Z,65.62
2018-10-17T04:12:36.897Z,65.46
2018-10-17T04:15:06.384Z,67.06
2018-10-17T04:17:36.338Z,65.55
2018-10-17T04:20:05.431Z,65.47
2018-10-17T04:22:34.549Z,65.38
2018-10-17T04:25:03.591Z,66.38
2018-10-17T04:27:32.583Z,65.44
2018-10-17T04:30:01.635Z,65.13
2018-10-17T04:32:30.768Z,65.28
2018-10-17T04:34:59.886Z,64.65
2018-10-17T04:37:28.927Z,66.10
2018-10-17T04:39:58.006Z,65.12
2018-10-17T04:42:27.067Z,65.14
2018-10-17T04:44:56.143Z,64.54
2018-10-17T04:47:25.319Z,66.08
2018-10-17T04:49:54.377Z,64.40
2018-10-17T04:52:23.585Z,65.09
2018-10-17T04:54:52.684Z,65.11
2018-10-17T04:57:21.810Z,65.35
2018-10-17T04:59:50.860Z,65.02
2018-10-17T05:02:19.998Z,65.70
2018-10-17T05:04:49.055Z,64.88
2018-10-17T05:07:18.201Z,65.72
2018-10-17T05:09:49.249Z,66.00
2018-10-17T05:12:18.299Z,65.02
2018-10-17T05:14:47.446Z,65.71
2018-10-17T05:17:16.549Z,65.15
2018-10-17T05:19:45.729Z,63.35
2018-10-17T05:22:14.763Z,64.42
2018-10-17T05:24:43.804Z,64.88
2018-10-17T05:27:12.835Z,66.04
2018-10-17T05:29:41.913Z,64.88
2018-10-17T05:32:10.963Z,66.10
2018-10-17T05:34:39.993Z,65.39
2018-10-17T05:37:09.095Z,65.62
2018-10-17T05:39:38.170Z,66.09
2018-10-17T05:42:07.241Z,66.97
2018-10-17T05:44:36.324Z,67.47
2018-10-17T05:47:05.476Z,67.07
2018-10-17T05:49:34.507Z,65.98
2018-10-17T05:52:03.553Z,66.68
2018-10-17T05:54:32.647Z,66.83
2018-10-17T05:57:01.686Z,67.06
2018-10-17T05:59:30.728Z,65.91
2018-10-17T06:02:00.586Z,66.44
2018-10-17T06:04:29.566Z,66.14
2018-10-17T06:06:58.618Z,66.81
2018-10-17T06:09:27.649Z,66.99
2018-10-17T06:11:56.664Z,67.08
2018-10-17T06:14:25.699Z,66.93
2018-10-17T06:16:54.840Z,67.34
2018-10-17T06:19:23.873Z,67.07
2018-10-17T06:21:52.910Z,65.85
2018-10-17T06:24:21.945Z,65.98
2018-10-17T06:26:51.004Z,66.40
2018-10-17T06:29:20.035Z,65.88
2018-10-17T06:31:49.082Z,67.24
2018-10-17T06:34:18.162Z,67.47
2018-10-17T06:36:47.210Z,67.36
2018-10-17T06:39:16.258Z,66.72
2018-10-17T06:41:45.321Z,67.15
2018-10-17T06:44:14.343Z,67.97
2018-10-17T06:46:43.421Z,67.40
2018-10-17T06:49:12.525Z,67.50
2018-10-17T06:51:41.509Z,67.62
2018-10-17T06:54:10.618Z,67.58
2018-10-17T06:56:39.677Z,67.59
2018-10-17T06:59:08.736Z,68.32
2018-10-17T07:01:37.780Z,66.66
2018-10-17T07:04:06.942Z,68.14
2018-10-17T07:06:35.963Z,67.02
2018-10-17T07:09:07.664Z,67.07
2018-10-17T07:11:36.897Z,68.90
2018-10-17T07:14:06.137Z,67.62
2018-10-17T07:16:35.340Z,67.37
2018-10-17T07:19:05.658Z,67.35
2018-10-17T07:21:34.655Z,67.84
2018-10-17T07:24:03.728Z,65.81
2018-10-17T07:26:32.775Z,68.02
2018-10-17T07:29:01.841Z,68.74
2018-10-17T07:31:31.162Z,66.84
2018-10-17T07:34:00.241Z,67.98
2018-10-17T07:36:29.262Z,67.77
2018-10-17T07:38:58.298Z,68.35
2018-10-17T07:41:27.383Z,67.51
2018-10-17T07:43:56.427Z,68.02
2018-10-17T07:46:26.696Z,69.72
2018-10-17T07:48:55.766Z,68.43
2018-10-17T07:51:24.831Z,71.73
2018-10-17T07:53:54.086Z,70.55
2018-10-17T07:56:23.110Z,69.63
2018-10-17T07:58:52.133Z,71.46
2018-10-17T08:01:21.616Z,77.53
2018-10-17T08:03:50.658Z,72.46
2018-10-17T08:06:19.738Z,72.38
2018-10-17T08:08:48.740Z,75.07
2018-10-17T08:11:17.818Z,77.38
2018-10-17T08:13:46.945Z,73.50
2018-10-17T08:16:16.010Z,73.00
2018-10-17T08:18:45.077Z,71.41
2018-10-17T08:21:14.161Z,72.85
2018-10-17T08:23:43.166Z,72.88
2018-10-17T08:26:12.257Z,72.73
2018-10-17T08:28:41.309Z,72.98
2018-10-17T08:31:10.354Z,71.79
2018-10-17T08:33:39.413Z,75.92
2018-10-17T08:36:08.684Z,71.94
2018-10-17T08:38:37.519Z,75.32
2018-10-17T08:41:06.734Z,75.15
2018-10-17T08:43:35.695Z,77.24
2018-10-17T08:46:04.756Z,73.37
2018-10-17T08:48:33.805Z,73.41
2018-10-17T08:51:02.850Z,76.15
2018-10-17T08:53:31.865Z,75.46
2018-10-17T08:56:00.945Z,73.50
2018-10-17T08:58:30.079Z,79.27
2018-10-17T09:00:59.106Z,77.50
2018-10-17T09:03:28.134Z,74.82
2018-10-17T09:05:57.182Z,73.91
2018-10-17T09:08:26.187Z,77.36
2018-10-17T09:10:55.253Z,75.89
2018-10-17T09:13:24.378Z,76.95
2018-10-17T09:15:53.407Z,75.97
2018-10-17T09:18:22.428Z,75.62
2018-10-17T09:20:51.923Z,74.17
2018-10-17T09:23:20.533Z,73.56
2018-10-17T09:25:50.435Z,73.43
2018-10-17T09:28:21.216Z,72.57
2018-10-17T09:30:50.349Z,71.07
2018-10-17T09:33:19.447Z,71.50
2018-10-17T09:35:49.631Z,71.40
2018-10-17T09:38:18.703Z,70.90
2018-10-17T09:40:47.821Z,70.08
2018-10-17T09:43:16.988Z,69.65
2018-10-17T09:45:46.103Z,69.05
2018-10-17T09:48:15.335Z,69.38
2018-10-17T09:50:44.381Z,69.14
2018-10-17T09:53:13.526Z,68.25
2018-10-17T09:55:42.634Z,68.82
2018-10-17T09:58:11.856Z,68.58
2018-10-17T10:00:45.998Z,66.87
2018-10-17T10:03:15.053Z,68.23
2018-10-17T10:05:44.102Z,67.38
2018-10-17T10:08:14.422Z,66.27
2018-10-17T10:10:43.530Z,66.69
2018-10-17T10:13:12.551Z,66.39
2018-10-17T10:15:41.621Z,66.06
2018-10-17T10:18:11.094Z,65.60
2018-10-17T10:20:40.122Z,66.21
2018-10-17T10:23:09.240Z,66.98
2018-10-17T10:25:38.229Z,65.67
2018-10-17T10:28:07.348Z,65.94
2018-10-17T10:30:36.375Z,65.51
2018-10-17T10:33:05.895Z,65.13
2018-10-17T10:35:34.973Z,66.17
2018-10-17T10:38:04.040Z,64.59
2018-10-17T10:40:33.156Z,64.62
2018-10-17T10:43:02.495Z,64.56
2018-10-17T10:45:31.624Z,62.58
2018-10-17T10:48:00.704Z,64.51
2018-10-17T10:50:29.756Z,62.83
2018-10-17T10:52:58.841Z,63.21
2018-10-17T10:55:27.935Z,62.80
2018-10-17T10:57:57.053Z,62.77
2018-10-17T11:00:26.523Z,62.24
2018-10-17T11:02:55.634Z,62.83
2018-10-17T11:05:24.868Z,60.67
2018-10-17T11:07:53.841Z,60.67
2018-10-17T11:10:22.838Z,60.49
2018-10-17T11:12:51.933Z,60.86
2018-10-17T11:15:21.047Z,60.30
2018-10-17T11:17:50.125Z,61.15
2018-10-17T11:20:19.203Z,60.39
2018-10-17T11:22:48.282Z,60.79
2018-10-17T11:25:17.355Z,61.07
2018-10-17T11:27:46.458Z,60.72
2018-10-17T11:30:16.487Z,60.60
2018-10-17T11:32:45.596Z,60.81
2018-10-17T11:35:14.748Z,60.03
2018-10-17T11:37:43.832Z,59.05
2018-10-17T11:40:12.892Z,59.90
2018-10-17T11:42:41.939Z,59.98
2018-10-17T11:45:11.076Z,58.42
2018-10-17T11:47:40.182Z,59.42
2018-10-17T11:50:10.085Z,58.86
2018-10-17T11:52:39.430Z,59.50
2018-10-17T11:55:08.989Z,58.12
2018-10-17T11:57:38.566Z,59.04
2018-10-17T12:00:09.876Z,56.20
2018-10-17T12:02:39.135Z,57.45
2018-10-17T12:05:11.233Z,57.66
2018-10-17T12:07:40.341Z,58.18
2018-10-17T12:10:11.414Z,58.54
2018-10-17T12:12:40.587Z,58.05
2018-10-17T12:15:12.480Z,58.30
2018-10-17T12:17:41.890Z,55.96
2018-10-17T12:20:13.663Z,56.46
2018-10-17T12:22:51.620Z,53.74
2018-10-17T12:25:20.979Z,56.60
2018-10-17T12:27:50.302Z,57.38
2018-10-17T12:30:20.461Z,55.97
2018-10-17T12:32:49.631Z,56.04
2018-10-17T12:35:18.902Z,57.20
2018-10-17T12:37:47.848Z,56.80
2018-10-17T12:40:17.631Z,55.82
2018-10-17T12:42:46.660Z,55.50
2018-10-17T12:45:15.879Z,55.12
2018-10-17T12:47:45.053Z,55.20
2018-10-17T12:50:14.316Z,55.25
2018-10-17T12:52:43.578Z,54.57
2018-10-17T12:55:12.628Z,54.83
2018-10-17T12:57:41.708Z,55.18
2018-10-17T13:00:10.963Z,54.07
2018-10-17T13:02:42.437Z,54.55
2018-10-17T13:05:11.697Z,53.58
2018-10-17T13:07:40.686Z,53.28
2018-10-17T13:10:10.596Z,52.70
2018-10-17T13:12:41.595Z,54.19
2018-10-17T13:15:13.016Z,53.92
2018-10-17T13:17:43.171Z,54.25
2018-10-17T13:20:12.233Z,52.02
2018-10-17T13:22:42.250Z,53.09
2018-10-17T13:25:11.480Z,52.81
2018-10-17T13:27:40.484Z,52.95
2018-10-17T13:30:09.678Z,53.17
2018-10-17T13:32:38.776Z,53.35
2018-10-17T13:35:08.033Z,53.71
2018-10-17T13:37:37.118Z,52.65
2018-10-17T13:40:06.542Z,54.39
2018-10-17T13:42:35.698Z,53.95
2018-10-17T13:45:06.025Z,53.84
2018-10-17T13:47:35.090Z,54.87
2018-10-17T13:50:04.272Z,54.52
2018-10-17T13:52:33.341Z,53.89
2018-10-17T13:55:02.468Z,53.93
2018-10-17T13:57:31.551Z,54.88
2018-10-17T14:00:00.579Z,54.67
2018-10-17T14:02:29.632Z,54.91
2018-10-17T14:04:58.688Z,53.57
2018-10-17T14:07:27.764Z,55.90
2018-10-17T14:09:56.839Z,55.14
2018-10-17T14:12:26.002Z,54.50
2018-10-17T14:14:55.974Z,53.90
2018-10-17T14:17:25.119Z,53.48
2018-10-17T14:19:54.317Z,54.44
2018-10-17T14:22:23.447Z,53.99
2018-10-17T14:24:52.573Z,54.17
2018-10-17T14:27:21.637Z,54.97
2018-10-17T14:29:50.750Z,54.93
2018-10-17T14:32:19.870Z,54.42
2018-10-17T14:34:49.042Z,53.44
2018-10-17T14:37:18.221Z,55.02
2018-10-17T14:39:47.650Z,55.02
2018-10-17T14:42:16.887Z,54.91
2018-10-17T14:44:48.450Z,55.85
2018-10-17T14:47:17.645Z,56.09
2018-10-17T14:49:46.918Z,55.49
2018-10-17T14:52:16.091Z,55.62
2018-10-17T14:54:45.287Z,55.99
2018-10-17T14:57:15.887Z,56.06
2018-10-17T14:59:44.990Z,56.22
2018-10-17T15:02:14.208Z,55.65
2018-10-17T15:04:43.578Z,55.25
2018-10-17T15:07:12.750Z,56.56
2018-10-17T15:09:41.982Z,56.54
2018-10-17T15:12:11.178Z,56.52
2018-10-17T15:14:40.306Z,56.36
2018-10-17T15:17:09.568Z,56.58
2018-10-17T15:19:41.098Z,56.36
2018-10-17T15:22:11.100Z,57.78
2018-10-17T15:24:40.271Z,57.91
2018-10-17T15:27:09.494Z,56.65
2018-10-17T15:29:38.668Z,57.78
2018-10-17T15:32:07.843Z,57.49
2018-10-17T15:34:36.978Z,57.24
2018-10-17T15:37:06.438Z,57.18
2018-10-17T15:39:37.773Z,57.90
2018-10-17T15:42:06.884Z,57.67
2018-10-17T15:44:36.035Z,57.56
2018-10-17T15:47:05.403Z,59.21
2018-10-17T15:49:34.578Z,59.70
2018-10-17T15:52:04.611Z,59.50
2018-10-17T15:54:33.697Z,59.50
2018-10-17T15:57:02.815Z,59.82
2018-10-17T15:59:31.866Z,60.15
2018-10-17T16:02:01.083Z,59.22
2018-10-17T16:04:30.235Z,59.49
2018-10-17T16:06:59.365Z,60.12
2018-10-17T16:09:28.458Z,59.80
2018-10-17T16:11:57.535Z,60.01
2018-10-17T16:14:27.190Z,60.78
2018-10-17T16:16:56.284Z,60.87
2018-10-17T16:19:25.438Z,60.12
2018-10-17T16:21:54.542Z,61.95
2018-10-17T16:24:23.625Z,62.19
2018-10-17T16:26:52.723Z,60.88
2018-10-17T16:29:21.882Z,60.60
2018-10-17T16:31:50.995Z,60.95
2018-10-17T16:34:20.182Z,61.80
2018-10-17T16:36:49.276Z,59.97
2018-10-17T16:39:18.398Z,59.89
2018-10-17T16:41:47.456Z,60.52
2018-10-17T16:44:16.702Z,59.48
2018-10-17T16:46:45.701Z,60.25
2018-10-17T16:49:14.855Z,60.71
2018-10-17T16:51:44.043Z,59.81
2018-10-17T16:54:13.183Z,60.10
2018-10-17T16:56:42.237Z,59.98
2018-10-17T16:59:11.335Z,60.59
2018-10-17T17:01:40.986Z,60.39
2018-10-17T17:04:13.044Z,59.90
2018-10-17T17:06:42.149Z,60.25
2018-10-17T17:09:12.013Z,60.65
2018-10-17T17:11:41.147Z,60.64
2018-10-17T17:14:10.356Z,60.70
2018-10-17T17:16:39.593Z,61.20
2018-10-17T17:19:08.765Z,61.28
2018-10-17T17:21:37.877Z,61.66
2018-10-17T17:24:06.973Z,62.22
2018-10-17T17:26:36.079Z,61.25
2018-10-17T17:29:05.442Z,61.87
2018-10-17T17:31:34.567Z,61.25
2018-10-17T17:34:03.647Z,61.95
2018-10-17T17:36:32.824Z,62.81
2018-10-17T17:39:01.883Z,61.83
2018-10-17T17:44:00.467Z,62.78
2018-10-17T17:46:29.675Z,61.81
2018-10-17T17:48:58.884Z,62.91
2018-10-17T17:51:28.019Z,63.48
2018-10-17T17:53:57.265Z,63.70
2018-10-17T17:56:26.557Z,64.50
2018-10-17T17:58:55.856Z,64.29
2018-10-17T18:01:25.156Z,64.04
2018-10-17T18:03:54.399Z,64.58
2018-10-17T18:06:23.590Z,64.25
2018-10-17T18:08:52.787Z,64.20
2018-10-17T18:11:24.171Z,64.26
2018-10-17T18:13:54.691Z,65.36
2018-10-17T18:16:23.930Z,64.74
2018-10-17T18:18:53.127Z,64.06
2018-10-17T18:21:23.892Z,64.21
2018-10-17T18:23:53.031Z,65.04
2018-10-17T18:26:22.255Z,65.53
2018-10-17T18:28:51.380Z,64.79
2018-10-17T18:31:20.671Z,65.07
2018-10-17T18:33:49.836Z,65.11
2018-10-17T18:36:19.008Z,65.08
2018-10-17T18:38:48.297Z,65.57
2018-10-17T18:41:17.598Z,64.96
2018-10-17T18:43:47.052Z,66.14
2018-10-17T18:46:16.210Z,66.27
2018-10-17T18:48:45.306Z,66.19
2018-10-17T18:51:14.467Z,66.13
2018-10-17T18:53:43.599Z,65.82
2018-10-17T18:56:12.855Z,66.17
2018-10-17T18:58:42.196Z,66.89
2018-10-17T19:01:11.284Z,67.37
2018-10-17T19:03:40.386Z,67.21
2018-10-17T19:06:09.427Z,67.14
2018-10-17T19:08:38.530Z,66.61
2018-10-17T19:11:07.952Z,66.49
2018-10-17T19:13:37.094Z,67.25
2018-10-17T19:16:06.272Z,66.98
2018-10-17T19:18:35.314Z,66.96
2018-10-17T19:21:05.977Z,66.55
2018-10-17T19:23:34.952Z,67.03
2018-10-17T19:26:03.988Z,67.23
2018-10-17T19:28:33.018Z,68.82
2018-10-17T19:31:02.046Z,67.48
2018-10-17T19:33:31.096Z,68.83
2018-10-17T19:36:00.172Z,67.80
2018-10-17T19:38:29.157Z,67.57
2018-10-17T19:40:58.197Z,68.06
2018-10-17T19:43:27.266Z,68.74
2018-10-17T19:45:56.294Z,68.36
2018-10-17T19:48:25.625Z,68.82
2018-10-17T19:50:54.711Z,67.74
2018-10-17T19:53:23.727Z,67.81
2018-10-17T19:55:52.810Z,68.38
2018-10-17T19:58:21.835Z,68.03
2018-10-17T20:00:50.860Z,67.46
2018-10-17T20:03:19.910Z,68.28
2018-10-17T20:05:48.954Z,67.04
2018-10-17T20:08:17.991Z,68.64
2018-10-17T20:10:47.053Z,68.42
2018-10-17T20:13:17.098Z,68.67
2018-10-17T20:15:46.192Z,67.94
2018-10-17T20:18:15.203Z,68.94
2018-10-17T20:20:44.270Z,68.34
2018-10-17T20:23:13.291Z,68.15
2018-10-17T20:25:44.343Z,69.21
2018-10-17T20:28:13.365Z,69.66
2018-10-17T20:30:42.410Z,69.21
2018-10-17T20:33:11.521Z,69.24
2018-10-17T20:35:40.553Z,69.57
2018-10-17T20:38:09.607Z,69.21
2018-10-17T20:40:38.648Z,69.06
2018-10-17T20:43:07.674Z,68.65
2018-10-17T20:45:36.739Z,68.88
2018-10-17T20:48:05.831Z,69.92
2018-10-17T20:50:34.885Z,68.62
2018-10-17T20:53:03.912Z,70.12
2018-10-17T20:55:32.926Z,69.34
2018-10-17T20:58:01.990Z,69.17
2018-10-17T21:00:30.983Z,70.33
2018-10-17T21:03:00.011Z,69.47
2018-10-17T21:05:29.041Z,69.11
2018-10-17T21:07:58.095Z,68.35
2018-10-17T21:10:27.113Z,69.59
2018-10-17T21:12:56.166Z,68.92
2018-10-17T21:15:25.226Z,70.01
2018-10-17T21:17:54.290Z,70.32
2018-10-17T21:20:23.363Z,70.54
2018-10-17T21:22:52.689Z,69.70
2018-10-17T21:25:21.759Z,69.89
2018-10-17T21:27:50.826Z,68.72
2018-10-17T21:30:19.868Z,70.21
2018-10-17T21:32:48.890Z,70.14
2018-10-17T21:35:17.948Z,70.21
2018-10-17T21:37:47.017Z,70.58
2018-10-17T21:40:16.046Z,71.01
2018-10-17T21:42:45.062Z,69.68
2018-10-17T21:45:14.216Z,70.72
2018-10-17T21:47:43.262Z,69.29
2018-10-17T21:50:12.424Z,71.39
2018-10-17T21:52:41.374Z,68.80
2018-10-17T21:55:10.402Z,70.43
2018-10-17T21:57:39.435Z,69.91
2018-10-17T22:00:10.082Z,70.95
2018-10-17T22:02:39.337Z,70.04
2018-10-17T22:05:09.498Z,72.34
2018-10-17T22:07:38.698Z,71.30
2018-10-17T22:10:08.535Z,70.67
2018-10-17T22:12:37.917Z,70.25
2018-10-17T22:15:07.980Z,71.84
2018-10-17T22:17:37.009Z,70.72
2018-10-17T22:20:06.560Z,71.82
2018-10-17T22:22:35.602Z,71.34
2018-10-17T22:25:04.768Z,71.65
2018-10-17T22:27:33.807Z,70.91
2018-10-17T22:30:02.935Z,73.01
2018-10-17T22:32:31.875Z,71.84
2018-10-17T22:35:00.916Z,71.08
2018-10-17T22:37:29.935Z,71.00
2018-10-17T22:39:58.977Z,72.27
2018-10-17T22:42:28.024Z,71.02
2018-10-17T22:44:57.067Z,71.32
2018-10-17T22:47:26.170Z,72.08
2018-10-17T22:49:55.243Z,71.58
2018-10-17T22:52:24.301Z,71.58
2018-10-17T22:54:53.357Z,70.30
2018-10-17T22:57:22.390Z,71.51
2018-10-17T22:59:51.450Z,72.83
2018-10-17T23:02:20.509Z,70.94
2018-10-17T23:04:49.560Z,70.68
2018-10-17T23:07:18.591Z,71.51
2018-10-17T23:09:48.646Z,69.76
2018-10-17T23:12:17.695Z,72.58
2018-10-17T23:14:46.768Z,71.85
2018-10-17T23:17:15.811Z,71.30
2018-10-17T23:19:44.853Z,71.80
2018-10-17T23:22:13.942Z,72.62
2018-10-17T23:24:43.026Z,72.56
2018-10-17T23:27:12.097Z,72.43
2018-10-17T23:29:41.131Z,72.55
2018-10-17T23:32:10.202Z,73.42
2018-10-17T23:34:39.187Z,72.48
2018-10-17T23:37:08.233Z,72.66
2018-10-17T23:39:37.277Z,72.72
2018-10-17T23:42:06.733Z,73.58
2018-10-17T23:44:35.697Z,72.68
2018-10-17T23:47:04.777Z,72.42
2018-10-17T23:49:33.866Z,72.70
2018-10-17T23:52:02.906Z,73.63
2018-10-17T23:54:31.961Z,73.38
2018-10-17T23:57:01.004Z,73.47
2018-10-17T23:59:30.075Z,72.86
